首页
METAR-TAF:

METAR-TAF

机场 :

阿德萊德機場

阿德莱德, 澳大利亚

纬度: 34-56S, 经度: 138-31E, 海拔: 6米

当前天气观测

该预报发布于13分钟前的04:00 UTC
风速5节,风向西
温度 16°C
湿度 39%
气压 1027 hPa
能见度10公里或以上
少量云层高于3000英尺
多云层高于26000英尺

METAR: YPAD 230400Z 28005KT 9999 FEW030 BKN260 16/02 Q1027

时间: 13:43 (04:13 UTC)

预报

该预报发布于5小时和4分钟前的23:09 UTC
预报有效从23日的 00点(UTC)到 24日的 06点(UTC)
风速6节,风向东北
能见度10公里或以上
少量云层高于2500英尺
从 23日的 0300点(UTC)
风速5节,风向多变
能见度10公里或以上
散云层高于3000英尺
小阵雨
从 23日的 0900点(UTC)
风速6节,风向东南
能见度10公里或以上
少量云层高于2000英尺
散云层高于3000英尺

TAF: YPAD 222309Z 2300/2406 04006KT 9999 FEW025 FM230300 VRB05KT 9999 -SHRA SCT030 FM230900 14006KT 9999 FEW020 SCT030

超过4000个机场的气象观测和天气预报(METAR&TAF报告)。

可查询的气象台以黄色和红色小点在地图上表示。

将鼠标移到小点上方,可查看气象台名称。

然后点击查看天气观测和预报。

如需切换地图:点击带黑十字的绿色按钮放大地图;点击带横线的绿色按钮缩小地图;或者点击绿色箭头查看邻近地区的地图。


METAR-TAF: